sensor_id;sensor_type;location;lat;lon;timestamp;P1;durP1;ratioP1;P2;durP2;ratioP2
12848;SDS011;6493;50.928;7.172;2024-02-21T00:02:01;2.83;;;1.60;;
12848;SDS011;6493;50.928;7.172;2024-02-21T00:07:06;1.87;;;1.20;;
12848;SDS011;6493;50.928;7.172;2024-02-21T00:12:09;2.53;;;1.93;;
12848;SDS011;6493;50.928;7.172;2024-02-21T00:17:15;4.23;;;2.27;;
12848;SDS011;6493;50.928;7.172;2024-02-21T00:22:20;2.10;;;1.60;;
12848;SDS011;6493;50.928;7.172;2024-02-21T00:27:24;2.50;;;1.63;;
12848;SDS011;6493;50.928;7.172;2024-02-21T00:32:28;2.70;;;2.07;;
12848;SDS011;6493;50.928;7.172;2024-02-21T00:37:33;3.30;;;1.53;;
12848;SDS011;6493;50.928;7.172;2024-02-21T00:42:36;1.83;;;1.47;;
12848;SDS011;6493;50.928;7.172;2024-02-21T00:47:40;1.60;;;1.10;;
12848;SDS011;6493;50.928;7.172;2024-02-21T00:52:45;2.20;;;1.10;;
12848;SDS011;6493;50.928;7.172;2024-02-21T00:57:49;2.20;;;1.03;;
12848;SDS011;6493;50.928;7.172;2024-02-21T01:02:52;3.60;;;1.40;;
12848;SDS011;6493;50.928;7.172;2024-02-21T01:07:57;1.97;;;1.40;;
12848;SDS011;6493;50.928;7.172;2024-02-21T01:13:01;1.40;;;1.30;;
12848;SDS011;6493;50.928;7.172;2024-02-21T01:18:05;2.10;;;1.40;;
12848;SDS011;6493;50.928;7.172;2024-02-21T01:23:10;1.87;;;1.13;;
12848;SDS011;6493;50.928;7.172;2024-02-21T01:28:13;2.17;;;1.13;;
12848;SDS011;6493;50.928;7.172;2024-02-21T01:33:17;2.13;;;1.27;;
12848;SDS011;6493;50.928;7.172;2024-02-21T01:38:22;1.73;;;1.13;;
12848;SDS011;6493;50.928;7.172;2024-02-21T01:43:25;1.40;;;1.03;;
12848;SDS011;6493;50.928;7.172;2024-02-21T01:48:29;1.73;;;1.10;;
12848;SDS011;6493;50.928;7.172;2024-02-21T01:53:35;1.53;;;1.07;;
12848;SDS011;6493;50.928;7.172;2024-02-21T01:58:43;2.63;;;1.30;;
12848;SDS011;6493;50.928;7.172;2024-02-21T02:03:47;1.40;;;1.10;;
12848;SDS011;6493;50.928;7.172;2024-02-21T02:08:53;3.23;;;1.27;;
12848;SDS011;6493;50.928;7.172;2024-02-21T02:13:57;2.43;;;1.23;;
12848;SDS011;6493;50.928;7.172;2024-02-21T02:19:01;1.30;;;1.20;;
12848;SDS011;6493;50.928;7.172;2024-02-21T02:24:06;1.80;;;1.40;;
12848;SDS011;6493;50.928;7.172;2024-02-21T02:29:10;2.70;;;1.67;;
12848;SDS011;6493;50.928;7.172;2024-02-21T02:34:14;1.30;;;1.17;;
12848;SDS011;6493;50.928;7.172;2024-02-21T02:39:19;2.20;;;1.20;;
12848;SDS011;6493;50.928;7.172;2024-02-21T02:44:23;1.73;;;1.10;;
12848;SDS011;6493;50.928;7.172;2024-02-21T02:49:26;1.80;;;1.17;;
12848;SDS011;6493;50.928;7.172;2024-02-21T02:54:31;3.23;;;1.00;;
12848;SDS011;6493;50.928;7.172;2024-02-21T02:59:35;2.57;;;0.90;;
12848;SDS011;6493;50.928;7.172;2024-02-21T03:04:39;2.17;;;1.20;;
12848;SDS011;6493;50.928;7.172;2024-02-21T03:09:44;1.83;;;1.03;;
12848;SDS011;6493;50.928;7.172;2024-02-21T03:14:48;2.03;;;0.97;;
12848;SDS011;6493;50.928;7.172;2024-02-21T03:19:51;1.63;;;0.97;;
12848;SDS011;6493;50.928;7.172;2024-02-21T03:24:57;1.00;;;0.90;;
12848;SDS011;6493;50.928;7.172;2024-02-21T03:30:00;2.53;;;0.90;;
12848;SDS011;6493;50.928;7.172;2024-02-21T03:35:04;1.93;;;1.10;;
12848;SDS011;6493;50.928;7.172;2024-02-21T03:40:10;2.17;;;1.40;;
12848;SDS011;6493;50.928;7.172;2024-02-21T03:45:14;2.23;;;1.13;;
12848;SDS011;6493;50.928;7.172;2024-02-21T03:50:18;2.57;;;1.03;;
12848;SDS011;6493;50.928;7.172;2024-02-21T03:55:23;1.90;;;1.10;;
12848;SDS011;6493;50.928;7.172;2024-02-21T04:00:26;1.77;;;0.90;;
12848;SDS011;6493;50.928;7.172;2024-02-21T04:05:30;3.20;;;1.00;;
12848;SDS011;6493;50.928;7.172;2024-02-21T04:10:35;1.63;;;1.20;;
12848;SDS011;6493;50.928;7.172;2024-02-21T04:15:39;1.77;;;1.07;;
12848;SDS011;6493;50.928;7.172;2024-02-21T04:20:42;3.30;;;1.03;;
12848;SDS011;6493;50.928;7.172;2024-02-21T04:25:47;2.80;;;1.47;;
12848;SDS011;6493;50.928;7.172;2024-02-21T04:30:51;1.70;;;1.40;;
12848;SDS011;6493;50.928;7.172;2024-02-21T04:35:55;2.50;;;1.40;;
12848;SDS011;6493;50.928;7.172;2024-02-21T04:41:01;1.90;;;1.00;;
12848;SDS011;6493;50.928;7.172;2024-02-21T04:46:05;3.57;;;1.13;;
12848;SDS011;6493;50.928;7.172;2024-02-21T04:51:09;3.20;;;0.90;;
12848;SDS011;6493;50.928;7.172;2024-02-21T04:56:16;2.63;;;1.07;;
12848;SDS011;6493;50.928;7.172;2024-02-21T05:01:19;2.77;;;1.40;;
12848;SDS011;6493;50.928;7.172;2024-02-21T05:06:23;1.80;;;1.17;;
12848;SDS011;6493;50.928;7.172;2024-02-21T05:11:28;1.30;;;0.90;;
12848;SDS011;6493;50.928;7.172;2024-02-21T05:16:35;1.67;;;0.77;;
12848;SDS011;6493;50.928;7.172;2024-02-21T05:21:38;1.93;;;0.80;;
12848;SDS011;6493;50.928;7.172;2024-02-21T05:26:43;1.53;;;0.77;;
12848;SDS011;6493;50.928;7.172;2024-02-21T05:31:56;2.23;;;0.90;;
12848;SDS011;6493;50.928;7.172;2024-02-21T05:37:01;1.33;;;0.73;;
12848;SDS011;6493;50.928;7.172;2024-02-21T05:42:06;1.80;;;0.90;;
12848;SDS011;6493;50.928;7.172;2024-02-21T05:47:10;2.37;;;1.20;;
12848;SDS011;6493;50.928;7.172;2024-02-21T05:52:17;1.97;;;0.80;;
12848;SDS011;6493;50.928;7.172;2024-02-21T05:57:22;1.53;;;1.10;;
12848;SDS011;6493;50.928;7.172;2024-02-21T06:02:25;0.80;;;0.80;;
12848;SDS011;6493;50.928;7.172;2024-02-21T06:07:30;1.40;;;0.70;;
12848;SDS011;6493;50.928;7.172;2024-02-21T06:12:35;0.67;;;0.67;;
12848;SDS011;6493;50.928;7.172;2024-02-21T06:17:38;0.77;;;0.70;;
12848;SDS011;6493;50.928;7.172;2024-02-21T06:22:42;1.40;;;0.80;;
12848;SDS011;6493;50.928;7.172;2024-02-21T06:27:47;1.27;;;0.90;;
12848;SDS011;6493;50.928;7.172;2024-02-21T06:32:51;1.10;;;0.60;;
12848;SDS011;6493;50.928;7.172;2024-02-21T06:37:54;2.63;;;0.80;;
12848;SDS011;6493;50.928;7.172;2024-02-21T06:42:59;1.43;;;0.90;;
12848;SDS011;6493;50.928;7.172;2024-02-21T06:48:03;1.03;;;0.73;;
12848;SDS011;6493;50.928;7.172;2024-02-21T06:53:07;1.97;;;0.83;;
12848;SDS011;6493;50.928;7.172;2024-02-21T06:58:12;1.83;;;0.90;;
12848;SDS011;6493;50.928;7.172;2024-02-21T07:03:17;1.67;;;0.77;;
12848;SDS011;6493;50.928;7.172;2024-02-21T07:08:21;1.40;;;0.70;;
12848;SDS011;6493;50.928;7.172;2024-02-21T07:13:26;2.43;;;1.03;;
12848;SDS011;6493;50.928;7.172;2024-02-21T07:18:30;1.70;;;1.03;;
12848;SDS011;6493;50.928;7.172;2024-02-21T07:23:34;2.20;;;1.20;;
12848;SDS011;6493;50.928;7.172;2024-02-21T07:28:38;4.23;;;1.60;;
12848;SDS011;6493;50.928;7.172;2024-02-21T07:33:42;4.40;;;1.47;;
12848;SDS011;6493;50.928;7.172;2024-02-21T07:38:46;1.37;;;1.00;;
12848;SDS011;6493;50.928;7.172;2024-02-21T07:43:50;2.17;;;1.20;;
12848;SDS011;6493;50.928;7.172;2024-02-21T07:48:54;1.97;;;1.30;;
12848;SDS011;6493;50.928;7.172;2024-02-21T07:53:58;2.80;;;1.30;;
12848;SDS011;6493;50.928;7.172;2024-02-21T07:59:03;2.33;;;1.37;;
12848;SDS011;6493;50.928;7.172;2024-02-21T08:04:06;2.80;;;1.00;;
12848;SDS011;6493;50.928;7.172;2024-02-21T08:09:10;3.50;;;1.73;;
12848;SDS011;6493;50.928;7.172;2024-02-21T08:14:15;2.43;;;1.30;;
12848;SDS011;6493;50.928;7.172;2024-02-21T08:19:22;2.73;;;1.60;;
12848;SDS011;6493;50.928;7.172;2024-02-21T08:24:26;2.93;;;1.63;;
12848;SDS011;6493;50.928;7.172;2024-02-21T08:29:31;2.50;;;1.50;;
12848;SDS011;6493;50.928;7.172;2024-02-21T08:34:34;4.93;;;2.10;;
12848;SDS011;6493;50.928;7.172;2024-02-21T08:39:39;3.63;;;1.90;;
12848;SDS011;6493;50.928;7.172;2024-02-21T08:44:44;4.40;;;2.53;;
12848;SDS011;6493;50.928;7.172;2024-02-21T08:49:48;5.07;;;2.50;;
12848;SDS011;6493;50.928;7.172;2024-02-21T08:54:52;3.73;;;2.00;;
12848;SDS011;6493;50.928;7.172;2024-02-21T08:59:57;4.43;;;1.87;;
12848;SDS011;6493;50.928;7.172;2024-02-21T09:05:00;3.30;;;1.70;;
12848;SDS011;6493;50.928;7.172;2024-02-21T09:10:05;3.63;;;1.70;;
12848;SDS011;6493;50.928;7.172;2024-02-21T09:15:10;4.60;;;2.10;;
12848;SDS011;6493;50.928;7.172;2024-02-21T09:20:14;3.20;;;1.50;;
12848;SDS011;6493;50.928;7.172;2024-02-21T09:25:19;3.63;;;2.10;;
12848;SDS011;6493;50.928;7.172;2024-02-21T09:30:25;5.40;;;2.50;;
12848;SDS011;6493;50.928;7.172;2024-02-21T09:35:28;4.63;;;2.33;;
12848;SDS011;6493;50.928;7.172;2024-02-21T09:40:32;5.10;;;2.30;;
12848;SDS011;6493;50.928;7.172;2024-02-21T09:45:41;4.30;;;2.10;;
12848;SDS011;6493;50.928;7.172;2024-02-21T09:50:49;3.20;;;1.50;;
12848;SDS011;6493;50.928;7.172;2024-02-21T09:55:53;2.93;;;1.33;;
12848;SDS011;6493;50.928;7.172;2024-02-21T10:00:59;3.47;;;1.73;;
12848;SDS011;6493;50.928;7.172;2024-02-21T10:06:06;3.73;;;1.60;;
12848;SDS011;6493;50.928;7.172;2024-02-21T10:11:10;3.57;;;2.00;;
12848;SDS011;6493;50.928;7.172;2024-02-21T10:16:26;3.83;;;1.60;;
12848;SDS011;6493;50.928;7.172;2024-02-21T10:21:29;4.10;;;1.63;;
12848;SDS011;6493;50.928;7.172;2024-02-21T10:26:33;3.47;;;1.83;;
12848;SDS011;6493;50.928;7.172;2024-02-21T10:31:38;3.63;;;1.80;;
12848;SDS011;6493;50.928;7.172;2024-02-21T10:36:42;3.93;;;2.00;;
12848;SDS011;6493;50.928;7.172;2024-02-21T10:41:46;3.87;;;1.70;;
12848;SDS011;6493;50.928;7.172;2024-02-21T10:46:51;5.00;;;2.07;;
12848;SDS011;6493;50.928;7.172;2024-02-21T10:52:01;5.67;;;2.30;;
12848;SDS011;6493;50.928;7.172;2024-02-21T10:57:16;4.47;;;1.87;;
12848;SDS011;6493;50.928;7.172;2024-02-21T11:02:21;6.27;;;2.17;;
12848;SDS011;6493;50.928;7.172;2024-02-21T11:07:26;2.43;;;1.10;;
12848;SDS011;6493;50.928;7.172;2024-02-21T11:12:32;3.07;;;1.40;;
12848;SDS011;6493;50.928;7.172;2024-02-21T11:17:37;4.43;;;2.30;;
12848;SDS011;6493;50.928;7.172;2024-02-21T11:22:51;3.93;;;1.67;;
12848;SDS011;6493;50.928;7.172;2024-02-21T11:28:00;3.57;;;1.60;;
12848;SDS011;6493;50.928;7.172;2024-02-21T11:33:06;5.83;;;2.40;;
12848;SDS011;6493;50.928;7.172;2024-02-21T11:38:10;3.73;;;2.07;;
12848;SDS011;6493;50.928;7.172;2024-02-21T11:43:18;3.83;;;1.70;;
12848;SDS011;6493;50.928;7.172;2024-02-21T11:48:24;4.90;;;2.07;;
12848;SDS011;6493;50.928;7.172;2024-02-21T11:53:28;6.40;;;2.50;;
12848;SDS011;6493;50.928;7.172;2024-02-21T11:58:35;4.67;;;2.30;;
12848;SDS011;6493;50.928;7.172;2024-02-21T12:03:40;4.97;;;1.57;;
12848;SDS011;6493;50.928;7.172;2024-02-21T12:08:46;4.10;;;1.73;;
12848;SDS011;6493;50.928;7.172;2024-02-21T12:13:59;2.40;;;1.57;;
12848;SDS011;6493;50.928;7.172;2024-02-21T12:19:06;5.23;;;2.07;;
12848;SDS011;6493;50.928;7.172;2024-02-21T12:24:11;3.47;;;1.63;;
12848;SDS011;6493;50.928;7.172;2024-02-21T12:29:15;4.93;;;1.80;;
12848;SDS011;6493;50.928;7.172;2024-02-21T12:34:21;4.13;;;1.50;;
12848;SDS011;6493;50.928;7.172;2024-02-21T12:39:39;3.57;;;1.70;;
12848;SDS011;6493;50.928;7.172;2024-02-21T12:44:43;3.80;;;1.83;;
12848;SDS011;6493;50.928;7.172;2024-02-21T12:49:49;5.60;;;2.13;;
12848;SDS011;6493;50.928;7.172;2024-02-21T12:54:53;3.90;;;1.80;;
12848;SDS011;6493;50.928;7.172;2024-02-21T12:59:58;4.43;;;1.70;;
12848;SDS011;6493;50.928;7.172;2024-02-21T13:05:03;4.50;;;1.80;;
12848;SDS011;6493;50.928;7.172;2024-02-21T13:10:09;4.50;;;2.07;;
12848;SDS011;6493;50.928;7.172;2024-02-21T13:15:13;3.63;;;1.60;;
12848;SDS011;6493;50.928;7.172;2024-02-21T13:20:19;4.47;;;1.83;;
12848;SDS011;6493;50.928;7.172;2024-02-21T13:25:23;6.43;;;2.10;;
12848;SDS011;6493;50.928;7.172;2024-02-21T13:30:27;3.87;;;2.40;;
12848;SDS011;6493;50.928;7.172;2024-02-21T13:35:32;6.87;;;1.90;;
12848;SDS011;6493;50.928;7.172;2024-02-21T13:40:38;5.27;;;1.97;;
12848;SDS011;6493;50.928;7.172;2024-02-21T13:45:45;2.53;;;1.40;;
12848;SDS011;6493;50.928;7.172;2024-02-21T13:51:01;3.43;;;1.30;;
12848;SDS011;6493;50.928;7.172;2024-02-21T13:56:05;3.73;;;1.60;;
12848;SDS011;6493;50.928;7.172;2024-02-21T14:01:11;6.53;;;2.10;;
12848;SDS011;6493;50.928;7.172;2024-02-21T14:06:16;3.33;;;1.50;;
12848;SDS011;6493;50.928;7.172;2024-02-21T14:11:20;3.80;;;1.60;;
12848;SDS011;6493;50.928;7.172;2024-02-21T14:16:25;3.70;;;1.63;;
12848;SDS011;6493;50.928;7.172;2024-02-21T14:21:30;4.33;;;1.70;;
12848;SDS011;6493;50.928;7.172;2024-02-21T14:26:35;2.77;;;1.33;;
12848;SDS011;6493;50.928;7.172;2024-02-21T14:31:39;3.20;;;1.40;;
12848;SDS011;6493;50.928;7.172;2024-02-21T14:36:46;1.93;;;1.17;;
12848;SDS011;6493;50.928;7.172;2024-02-21T14:41:50;2.07;;;1.27;;
12848;SDS011;6493;50.928;7.172;2024-02-21T14:46:53;5.43;;;1.60;;
12848;SDS011;6493;50.928;7.172;2024-02-21T14:51:58;3.07;;;1.37;;
12848;SDS011;6493;50.928;7.172;2024-02-21T14:57:02;4.47;;;1.53;;
12848;SDS011;6493;50.928;7.172;2024-02-21T15:02:06;2.80;;;1.50;;
12848;SDS011;6493;50.928;7.172;2024-02-21T15:07:12;2.67;;;1.23;;
12848;SDS011;6493;50.928;7.172;2024-02-21T15:12:16;4.23;;;1.60;;
12848;SDS011;6493;50.928;7.172;2024-02-21T15:17:24;1.70;;;1.30;;
12848;SDS011;6493;50.928;7.172;2024-02-21T15:22:29;3.80;;;1.37;;
12848;SDS011;6493;50.928;7.172;2024-02-21T15:27:32;3.03;;;1.37;;
12848;SDS011;6493;50.928;7.172;2024-02-21T15:32:41;2.30;;;1.00;;
12848;SDS011;6493;50.928;7.172;2024-02-21T15:37:48;2.50;;;1.10;;
12848;SDS011;6493;50.928;7.172;2024-02-21T15:42:51;1.73;;;1.10;;
12848;SDS011;6493;50.928;7.172;2024-02-21T15:47:55;2.77;;;1.20;;
12848;SDS011;6493;50.928;7.172;2024-02-21T15:53:00;2.53;;;1.33;;
12848;SDS011;6493;50.928;7.172;2024-02-21T15:58:04;1.73;;;1.10;;
12848;SDS011;6493;50.928;7.172;2024-02-21T16:03:08;2.17;;;1.10;;
12848;SDS011;6493;50.928;7.172;2024-02-21T16:08:13;5.67;;;2.93;;
12848;SDS011;6493;50.928;7.172;2024-02-21T16:13:20;5.33;;;2.30;;
12848;SDS011;6493;50.928;7.172;2024-02-21T16:18:23;4.43;;;2.30;;
12848;SDS011;6493;50.928;7.172;2024-02-21T16:23:28;4.40;;;1.90;;
12848;SDS011;6493;50.928;7.172;2024-02-21T16:28:32;3.23;;;1.50;;
12848;SDS011;6493;50.928;7.172;2024-02-21T16:33:36;2.73;;;1.30;;
12848;SDS011;6493;50.928;7.172;2024-02-21T16:38:42;2.47;;;1.27;;
12848;SDS011;6493;50.928;7.172;2024-02-21T16:43:45;2.43;;;1.27;;
12848;SDS011;6493;50.928;7.172;2024-02-21T16:48:50;2.20;;;1.23;;
12848;SDS011;6493;50.928;7.172;2024-02-21T16:53:55;3.93;;;1.40;;
12848;SDS011;6493;50.928;7.172;2024-02-21T16:58:58;2.33;;;1.13;;
12848;SDS011;6493;50.928;7.172;2024-02-21T17:04:02;3.53;;;1.60;;
12848;SDS011;6493;50.928;7.172;2024-02-21T17:09:10;3.50;;;1.40;;
12848;SDS011;6493;50.928;7.172;2024-02-21T17:14:15;3.93;;;1.40;;
12848;SDS011;6493;50.928;7.172;2024-02-21T17:19:18;2.63;;;1.53;;
12848;SDS011;6493;50.928;7.172;2024-02-21T17:24:23;2.40;;;1.37;;
12848;SDS011;6493;50.928;7.172;2024-02-21T17:29:28;4.80;;;1.63;;
12848;SDS011;6493;50.928;7.172;2024-02-21T17:34:32;3.07;;;1.30;;
12848;SDS011;6493;50.928;7.172;2024-02-21T17:39:37;3.57;;;1.30;;
12848;SDS011;6493;50.928;7.172;2024-02-21T17:44:40;3.53;;;1.47;;
12848;SDS011;6493;50.928;7.172;2024-02-21T17:49:47;3.37;;;1.60;;
12848;SDS011;6493;50.928;7.172;2024-02-21T17:54:52;2.20;;;1.50;;
12848;SDS011;6493;50.928;7.172;2024-02-21T17:59:58;5.20;;;1.73;;
12848;SDS011;6493;50.928;7.172;2024-02-21T18:05:13;4.73;;;2.70;;
12848;SDS011;6493;50.928;7.172;2024-02-21T18:10:19;3.50;;;1.83;;
12848;SDS011;6493;50.928;7.172;2024-02-21T18:15:23;2.77;;;1.40;;
12848;SDS011;6493;50.928;7.172;2024-02-21T18:20:27;1.47;;;1.10;;
12848;SDS011;6493;50.928;7.172;2024-02-21T18:25:32;2.13;;;1.40;;
12848;SDS011;6493;50.928;7.172;2024-02-21T18:30:36;3.03;;;1.53;;
12848;SDS011;6493;50.928;7.172;2024-02-21T18:35:40;4.53;;;1.50;;
12848;SDS011;6493;50.928;7.172;2024-02-21T18:40:45;2.97;;;1.50;;
12848;SDS011;6493;50.928;7.172;2024-02-21T18:45:49;3.20;;;1.70;;
12848;SDS011;6493;50.928;7.172;2024-02-21T18:50:53;3.10;;;1.37;;
12848;SDS011;6493;50.928;7.172;2024-02-21T18:55:58;2.13;;;1.17;;
12848;SDS011;6493;50.928;7.172;2024-02-21T19:01:02;3.83;;;1.43;;
12848;SDS011;6493;50.928;7.172;2024-02-21T19:06:06;2.17;;;1.37;;
12848;SDS011;6493;50.928;7.172;2024-02-21T19:11:11;4.50;;;1.80;;
12848;SDS011;6493;50.928;7.172;2024-02-21T19:16:15;1.93;;;1.50;;
12848;SDS011;6493;50.928;7.172;2024-02-21T19:21:18;3.43;;;1.40;;
12848;SDS011;6493;50.928;7.172;2024-02-21T19:26:24;2.53;;;1.50;;
12848;SDS011;6493;50.928;7.172;2024-02-21T19:31:27;2.17;;;1.33;;
12848;SDS011;6493;50.928;7.172;2024-02-21T19:36:31;2.80;;;1.77;;
12848;SDS011;6493;50.928;7.172;2024-02-21T19:41:36;3.83;;;1.43;;
12848;SDS011;6493;50.928;7.172;2024-02-21T19:46:40;3.33;;;1.70;;
12848;SDS011;6493;50.928;7.172;2024-02-21T19:51:46;3.43;;;1.70;;
12848;SDS011;6493;50.928;7.172;2024-02-21T19:56:51;3.87;;;1.90;;
12848;SDS011;6493;50.928;7.172;2024-02-21T20:01:54;3.97;;;1.80;;
12848;SDS011;6493;50.928;7.172;2024-02-21T20:07:00;1.63;;;1.30;;
12848;SDS011;6493;50.928;7.172;2024-02-21T20:12:05;2.30;;;1.70;;
12848;SDS011;6493;50.928;7.172;2024-02-21T20:17:11;3.93;;;2.20;;
12848;SDS011;6493;50.928;7.172;2024-02-21T20:22:15;1.97;;;1.60;;
12848;SDS011;6493;50.928;7.172;2024-02-21T20:27:23;2.53;;;1.93;;
12848;SDS011;6493;50.928;7.172;2024-02-21T20:32:26;3.03;;;1.70;;
12848;SDS011;6493;50.928;7.172;2024-02-21T20:37:30;3.13;;;1.97;;
12848;SDS011;6493;50.928;7.172;2024-02-21T20:42:35;2.07;;;1.57;;
12848;SDS011;6493;50.928;7.172;2024-02-21T20:47:38;2.27;;;1.50;;
12848;SDS011;6493;50.928;7.172;2024-02-21T20:52:42;2.77;;;1.43;;
12848;SDS011;6493;50.928;7.172;2024-02-21T20:57:48;5.47;;;2.20;;
12848;SDS011;6493;50.928;7.172;2024-02-21T21:02:51;3.00;;;1.70;;
12848;SDS011;6493;50.928;7.172;2024-02-21T21:07:55;3.10;;;1.90;;
12848;SDS011;6493;50.928;7.172;2024-02-21T21:13:00;2.60;;;1.70;;
12848;SDS011;6493;50.928;7.172;2024-02-21T21:18:06;1.77;;;1.30;;
12848;SDS011;6493;50.928;7.172;2024-02-21T21:23:11;2.00;;;1.10;;
12848;SDS011;6493;50.928;7.172;2024-02-21T21:28:16;1.50;;;1.37;;
12848;SDS011;6493;50.928;7.172;2024-02-21T21:33:20;1.50;;;1.30;;
12848;SDS011;6493;50.928;7.172;2024-02-21T21:38:24;2.90;;;1.30;;
12848;SDS011;6493;50.928;7.172;2024-02-21T21:43:29;1.77;;;1.37;;
12848;SDS011;6493;50.928;7.172;2024-02-21T21:48:33;1.27;;;1.03;;
12848;SDS011;6493;50.928;7.172;2024-02-21T21:53:37;1.60;;;1.10;;
12848;SDS011;6493;50.928;7.172;2024-02-21T21:58:43;1.17;;;0.97;;
12848;SDS011;6493;50.928;7.172;2024-02-21T22:03:47;1.00;;;0.90;;
12848;SDS011;6493;50.928;7.172;2024-02-21T22:08:51;1.57;;;1.17;;
12848;SDS011;6493;50.928;7.172;2024-02-21T22:13:56;1.10;;;0.90;;
12848;SDS011;6493;50.928;7.172;2024-02-21T22:19:00;1.03;;;0.90;;
12848;SDS011;6493;50.928;7.172;2024-02-21T22:24:04;2.77;;;1.17;;
12848;SDS011;6493;50.928;7.172;2024-02-21T22:29:09;1.20;;;1.00;;
12848;SDS011;6493;50.928;7.172;2024-02-21T22:34:13;2.00;;;1.10;;
12848;SDS011;6493;50.928;7.172;2024-02-21T22:39:17;0.70;;;0.70;;
12848;SDS011;6493;50.928;7.172;2024-02-21T22:44:24;0.67;;;0.67;;
12848;SDS011;6493;50.928;7.172;2024-02-21T22:49:27;0.50;;;0.50;;
12848;SDS011;6493;50.928;7.172;2024-02-21T22:54:31;1.70;;;1.20;;
12848;SDS011;6493;50.928;7.172;2024-02-21T22:59:36;1.80;;;0.73;;
12848;SDS011;6493;50.928;7.172;2024-02-21T23:04:39;3.17;;;0.70;;
12848;SDS011;6493;50.928;7.172;2024-02-21T23:09:43;0.90;;;0.70;;
12848;SDS011;6493;50.928;7.172;2024-02-21T23:14:48;1.07;;;0.70;;
12848;SDS011;6493;50.928;7.172;2024-02-21T23:19:52;0.63;;;0.60;;
12848;SDS011;6493;50.928;7.172;2024-02-21T23:24:56;0.60;;;0.60;;
12848;SDS011;6493;50.928;7.172;2024-02-21T23:30:00;0.70;;;0.60;;
12848;SDS011;6493;50.928;7.172;2024-02-21T23:35:05;0.70;;;0.70;;
12848;SDS011;6493;50.928;7.172;2024-02-21T23:40:12;0.40;;;0.40;;
12848;SDS011;6493;50.928;7.172;2024-02-21T23:45:17;0.60;;;0.50;;
12848;SDS011;6493;50.928;7.172;2024-02-21T23:50:21;0.80;;;0.50;;
12848;SDS011;6493;50.928;7.172;2024-02-21T23:55:25;1.30;;;0.57;;
